Deatsville, Kentucky
Current Conditions -  °F | °C
As of 5:56 PM on Monday 22 Dec 2014 (Local Time) from KSDF Reporting Station
Overcast Overcast  
Wind Chill: 11°   Ceiling: 3500
Heat Index: 11°   Visibility: 10mi
Dew Point:   Wind: 6mph
Humidity: 69%   Direction: 110°ESE
Pressure: 29.75"   Gusts: NA
Location:  37.9212°N, 85.4864°W
Report Text: KSDF 222256Z 11005KT 10SM OVC035 11/06 A2975 RMK AO2 SLP074 T01110056
Loading
Personal Weather Stations






























Interactive Weather Map New forecast layout! Learn more

10-Day Weather Forecast

Advertisements
Track Severe Weather on mobile